sensor_id;sensor_type;location;lat;lon;timestamp;temperature;humidity
44461;DHT22;30162;53.642;10.640;2022-12-20T00:01:25;7.10;94.80
44461;DHT22;30162;53.642;10.640;2022-12-20T00:03:52;7.20;94.80
44461;DHT22;30162;53.642;10.640;2022-12-20T00:06:19;7.30;94.60
44461;DHT22;30162;53.642;10.640;2022-12-20T00:08:45;7.30;94.80
44461;DHT22;30162;53.642;10.640;2022-12-20T00:11:11;7.40;94.90
44461;DHT22;30162;53.642;10.640;2022-12-20T00:13:37;7.50;94.80
44461;DHT22;30162;53.642;10.640;2022-12-20T00:16:06;7.50;94.60
44461;DHT22;30162;53.642;10.640;2022-12-20T00:18:32;7.40;94.50
44461;DHT22;30162;53.642;10.640;2022-12-20T00:20:59;7.40;94.60
44461;DHT22;30162;53.642;10.640;2022-12-20T00:23:24;7.40;94.50
44461;DHT22;30162;53.642;10.640;2022-12-20T00:25:50;7.20;94.70
44461;DHT22;30162;53.642;10.640;2022-12-20T00:28:16;7.30;94.70
44461;DHT22;30162;53.642;10.640;2022-12-20T00:30:41;7.30;94.60
44461;DHT22;30162;53.642;10.640;2022-12-20T00:33:07;7.40;94.70
44461;DHT22;30162;53.642;10.640;2022-12-20T00:35:32;7.40;94.70
44461;DHT22;30162;53.642;10.640;2022-12-20T00:37:58;7.30;94.60
44461;DHT22;30162;53.642;10.640;2022-12-20T00:40:23;7.30;94.70
44461;DHT22;30162;53.642;10.640;2022-12-20T00:42:49;7.30;94.80
44461;DHT22;30162;53.642;10.640;2022-12-20T00:45:14;7.30;94.80
44461;DHT22;30162;53.642;10.640;2022-12-20T00:47:40;7.20;94.70
44461;DHT22;30162;53.642;10.640;2022-12-20T00:50:06;7.40;94.90
44461;DHT22;30162;53.642;10.640;2022-12-20T00:52:31;7.30;94.80
44461;DHT22;30162;53.642;10.640;2022-12-20T00:54:57;7.40;95.10
44461;DHT22;30162;53.642;10.640;2022-12-20T00:57:22;7.40;94.80
44461;DHT22;30162;53.642;10.640;2022-12-20T00:59:48;7.40;94.70
44461;DHT22;30162;53.642;10.640;2022-12-20T01:02:13;7.50;95.00
44461;DHT22;30162;53.642;10.640;2022-12-20T01:04:39;7.50;94.90
44461;DHT22;30162;53.642;10.640;2022-12-20T01:07:04;7.40;94.60
44461;DHT22;30162;53.642;10.640;2022-12-20T01:09:30;7.40;94.60
44461;DHT22;30162;53.642;10.640;2022-12-20T01:11:56;7.50;94.70
44461;DHT22;30162;53.642;10.640;2022-12-20T01:14:21;7.40;94.60
44461;DHT22;30162;53.642;10.640;2022-12-20T01:16:47;7.40;94.90
44461;DHT22;30162;53.642;10.640;2022-12-20T01:19:15;7.40;95.00
44461;DHT22;30162;53.642;10.640;2022-12-20T01:21:41;7.40;94.90
44461;DHT22;30162;53.642;10.640;2022-12-20T01:24:17;7.50;94.90
44461;DHT22;30162;53.642;10.640;2022-12-20T01:26:45;7.50;95.10
44461;DHT22;30162;53.642;10.640;2022-12-20T01:29:11;7.50;95.20
44461;DHT22;30162;53.642;10.640;2022-12-20T01:31:36;7.50;95.00
44461;DHT22;30162;53.642;10.640;2022-12-20T01:34:02;7.60;95.00
44461;DHT22;30162;53.642;10.640;2022-12-20T01:36:31;7.60;94.90
44461;DHT22;30162;53.642;10.640;2022-12-20T01:41:30;7.60;94.30
44461;DHT22;30162;53.642;10.640;2022-12-20T01:46:41;7.50;94.30
44461;DHT22;30162;53.642;10.640;2022-12-20T01:49:22;7.40;94.70
44461;DHT22;30162;53.642;10.640;2022-12-20T01:52:13;7.40;94.90
44461;DHT22;30162;53.642;10.640;2022-12-20T01:55:01;7.40;94.70
44461;DHT22;30162;53.642;10.640;2022-12-20T01:58:05;7.40;95.00
44461;DHT22;30162;53.642;10.640;2022-12-20T02:00:22;7.50;95.00
44461;DHT22;30162;53.642;10.640;2022-12-20T02:02:49;7.50;94.80
44461;DHT22;30162;53.642;10.640;2022-12-20T02:05:17;7.60;94.70
44461;DHT22;30162;53.642;10.640;2022-12-20T02:07:45;7.70;94.80
44461;DHT22;30162;53.642;10.640;2022-12-20T02:10:13;7.70;94.70
44461;DHT22;30162;53.642;10.640;2022-12-20T02:12:44;7.80;94.60
44461;DHT22;30162;53.642;10.640;2022-12-20T02:18:01;7.90;94.80
44461;DHT22;30162;53.642;10.640;2022-12-20T02:31:32;7.90;95.10
44461;DHT22;30162;53.642;10.640;2022-12-20T02:33:59;7.90;95.20
44461;DHT22;30162;53.642;10.640;2022-12-20T02:36:26;7.90;95.30
44461;DHT22;30162;53.642;10.640;2022-12-20T02:38:51;8.10;95.10
44461;DHT22;30162;53.642;10.640;2022-12-20T02:41:22;8.10;95.20
44461;DHT22;30162;53.642;10.640;2022-12-20T02:43:55;8.20;95.20
44461;DHT22;30162;53.642;10.640;2022-12-20T02:46:41;8.20;95.00
44461;DHT22;30162;53.642;10.640;2022-12-20T02:49:14;8.20;94.90
44461;DHT22;30162;53.642;10.640;2022-12-20T02:51:42;8.20;95.00
44461;DHT22;30162;53.642;10.640;2022-12-20T02:54:08;8.20;95.10
44461;DHT22;30162;53.642;10.640;2022-12-20T02:56:49;8.20;95.00
44461;DHT22;30162;53.642;10.640;2022-12-20T02:59:17;8.20;95.40
44461;DHT22;30162;53.642;10.640;2022-12-20T03:01:47;8.30;95.20
44461;DHT22;30162;53.642;10.640;2022-12-20T03:04:15;8.30;95.10
44461;DHT22;30162;53.642;10.640;2022-12-20T03:06:55;8.30;95.30
44461;DHT22;30162;53.642;10.640;2022-12-20T03:09:21;8.30;95.40
44461;DHT22;30162;53.642;10.640;2022-12-20T03:11:46;8.40;95.50
44461;DHT22;30162;53.642;10.640;2022-12-20T03:14:12;8.30;95.40
44461;DHT22;30162;53.642;10.640;2022-12-20T03:16:38;8.40;95.40
44461;DHT22;30162;53.642;10.640;2022-12-20T03:19:03;8.30;95.40
44461;DHT22;30162;53.642;10.640;2022-12-20T03:21:29;8.40;95.50
44461;DHT22;30162;53.642;10.640;2022-12-20T03:23:54;8.30;95.30
44461;DHT22;30162;53.642;10.640;2022-12-20T03:26:20;8.30;95.40
44461;DHT22;30162;53.642;10.640;2022-12-20T03:28:45;8.30;95.40
44461;DHT22;30162;53.642;10.640;2022-12-20T03:31:11;8.40;95.50
44461;DHT22;30162;53.642;10.640;2022-12-20T03:33:37;8.30;95.60
44461;DHT22;30162;53.642;10.640;2022-12-20T03:36:02;8.40;95.70
44461;DHT22;30162;53.642;10.640;2022-12-20T03:38:28;8.40;95.70
44461;DHT22;30162;53.642;10.640;2022-12-20T03:40:53;8.50;95.60
44461;DHT22;30162;53.642;10.640;2022-12-20T03:43:19;8.50;95.60
44461;DHT22;30162;53.642;10.640;2022-12-20T03:45:44;8.60;95.60
44461;DHT22;30162;53.642;10.640;2022-12-20T03:48:10;8.50;95.80
44461;DHT22;30162;53.642;10.640;2022-12-20T03:50:35;8.50;95.90
44461;DHT22;30162;53.642;10.640;2022-12-20T03:53:01;8.60;95.40
44461;DHT22;30162;53.642;10.640;2022-12-20T03:55:27;8.70;95.20
44461;DHT22;30162;53.642;10.640;2022-12-20T03:57:53;8.70;95.20
44461;DHT22;30162;53.642;10.640;2022-12-20T04:00:18;8.80;95.20
44461;DHT22;30162;53.642;10.640;2022-12-20T04:02:45;8.80;95.20
44461;DHT22;30162;53.642;10.640;2022-12-20T04:05:10;8.70;95.40
44461;DHT22;30162;53.642;10.640;2022-12-20T04:07:36;8.70;95.20
44461;DHT22;30162;53.642;10.640;2022-12-20T04:10:02;8.80;95.50
44461;DHT22;30162;53.642;10.640;2022-12-20T04:12:27;8.80;95.50
44461;DHT22;30162;53.642;10.640;2022-12-20T04:14:53;8.90;95.40
44461;DHT22;30162;53.642;10.640;2022-12-20T04:17:18;8.90;95.30
44461;DHT22;30162;53.642;10.640;2022-12-20T04:19:44;8.70;95.40
44461;DHT22;30162;53.642;10.640;2022-12-20T04:22:09;8.80;95.90
44461;DHT22;30162;53.642;10.640;2022-12-20T04:24:35;8.90;95.60
44461;DHT22;30162;53.642;10.640;2022-12-20T04:29:26;9.00;95.10
44461;DHT22;30162;53.642;10.640;2022-12-20T04:31:52;9.10;95.30
44461;DHT22;30162;53.642;10.640;2022-12-20T04:34:18;9.00;95.40
44461;DHT22;30162;53.642;10.640;2022-12-20T04:36:43;8.90;95.20
44461;DHT22;30162;53.642;10.640;2022-12-20T04:39:09;9.00;95.20
44461;DHT22;30162;53.642;10.640;2022-12-20T04:41:34;8.80;95.30
44461;DHT22;30162;53.642;10.640;2022-12-20T04:44:00;9.00;95.40
44461;DHT22;30162;53.642;10.640;2022-12-20T04:46:25;9.00;95.50
44461;DHT22;30162;53.642;10.640;2022-12-20T04:48:51;8.90;95.30
44461;DHT22;30162;53.642;10.640;2022-12-20T04:51:17;8.90;95.20
44461;DHT22;30162;53.642;10.640;2022-12-20T04:53:43;8.80;95.20
44461;DHT22;30162;53.642;10.640;2022-12-20T04:56:18;8.90;95.20
44461;DHT22;30162;53.642;10.640;2022-12-20T04:58:45;8.90;95.40
44461;DHT22;30162;53.642;10.640;2022-12-20T05:01:11;8.90;95.50
44461;DHT22;30162;53.642;10.640;2022-12-20T05:03:37;8.80;95.70
44461;DHT22;30162;53.642;10.640;2022-12-20T05:06:03;8.80;95.70
44461;DHT22;30162;53.642;10.640;2022-12-20T05:08:29;8.90;95.50
44461;DHT22;30162;53.642;10.640;2022-12-20T05:10:54;9.00;95.30
44461;DHT22;30162;53.642;10.640;2022-12-20T05:13:20;8.80;95.90
44461;DHT22;30162;53.642;10.640;2022-12-20T05:15:50;8.90;95.80
44461;DHT22;30162;53.642;10.640;2022-12-20T05:18:16;8.80;95.60
44461;DHT22;30162;53.642;10.640;2022-12-20T05:20:42;9.00;95.70
44461;DHT22;30162;53.642;10.640;2022-12-20T05:23:09;9.10;95.50
44461;DHT22;30162;53.642;10.640;2022-12-20T05:25:53;9.10;95.20
44461;DHT22;30162;53.642;10.640;2022-12-20T05:28:37;9.20;95.20
44461;DHT22;30162;53.642;10.640;2022-12-20T05:31:03;9.10;95.10
44461;DHT22;30162;53.642;10.640;2022-12-20T05:33:28;9.00;95.20
44461;DHT22;30162;53.642;10.640;2022-12-20T05:35:54;9.20;95.20
44461;DHT22;30162;53.642;10.640;2022-12-20T05:38:21;9.00;95.60
44461;DHT22;30162;53.642;10.640;2022-12-20T05:40:47;9.00;95.30
44461;DHT22;30162;53.642;10.640;2022-12-20T05:43:14;9.10;95.30
44461;DHT22;30162;53.642;10.640;2022-12-20T05:45:40;9.10;95.60
44461;DHT22;30162;53.642;10.640;2022-12-20T05:48:09;9.10;95.70
44461;DHT22;30162;53.642;10.640;2022-12-20T05:50:34;8.90;96.00
44461;DHT22;30162;53.642;10.640;2022-12-20T05:53:00;9.00;95.80
44461;DHT22;30162;53.642;10.640;2022-12-20T05:55:25;9.10;95.40
44461;DHT22;30162;53.642;10.640;2022-12-20T05:57:51;8.90;95.60
44461;DHT22;30162;53.642;10.640;2022-12-20T06:00:17;9.00;95.80
44461;DHT22;30162;53.642;10.640;2022-12-20T06:02:42;9.00;95.50
44461;DHT22;30162;53.642;10.640;2022-12-20T06:05:08;8.80;96.00
44461;DHT22;30162;53.642;10.640;2022-12-20T06:07:34;8.90;96.00
44461;DHT22;30162;53.642;10.640;2022-12-20T06:09:59;8.90;95.60
44461;DHT22;30162;53.642;10.640;2022-12-20T06:12:25;8.90;95.70
44461;DHT22;30162;53.642;10.640;2022-12-20T06:14:50;9.00;95.80
44461;DHT22;30162;53.642;10.640;2022-12-20T06:17:16;8.90;95.80
44461;DHT22;30162;53.642;10.640;2022-12-20T06:19:43;9.00;95.90
44461;DHT22;30162;53.642;10.640;2022-12-20T06:22:09;9.00;95.90
44461;DHT22;30162;53.642;10.640;2022-12-20T06:24:35;9.00;95.50
44461;DHT22;30162;53.642;10.640;2022-12-20T06:27:02;9.00;95.60
44461;DHT22;30162;53.642;10.640;2022-12-20T06:29:28;9.10;95.30
44461;DHT22;30162;53.642;10.640;2022-12-20T06:31:54;9.10;95.20
44461;DHT22;30162;53.642;10.640;2022-12-20T06:34:20;9.00;95.80
44461;DHT22;30162;53.642;10.640;2022-12-20T06:36:45;9.10;95.70
44461;DHT22;30162;53.642;10.640;2022-12-20T06:39:11;9.10;95.70
44461;DHT22;30162;53.642;10.640;2022-12-20T06:41:38;9.10;95.50
44461;DHT22;30162;53.642;10.640;2022-12-20T06:44:04;8.90;95.80
44461;DHT22;30162;53.642;10.640;2022-12-20T06:46:30;9.00;96.10
44461;DHT22;30162;53.642;10.640;2022-12-20T06:48:56;8.80;96.30
44461;DHT22;30162;53.642;10.640;2022-12-20T06:51:22;9.10;96.20
44461;DHT22;30162;53.642;10.640;2022-12-20T06:53:47;9.20;95.70
44461;DHT22;30162;53.642;10.640;2022-12-20T06:56:12;9.20;95.90
44461;DHT22;30162;53.642;10.640;2022-12-20T06:58:38;9.20;95.80
44461;DHT22;30162;53.642;10.640;2022-12-20T07:01:04;9.20;95.90
44461;DHT22;30162;53.642;10.640;2022-12-20T07:03:29;9.20;95.90
44461;DHT22;30162;53.642;10.640;2022-12-20T07:05:55;9.10;95.60
44461;DHT22;30162;53.642;10.640;2022-12-20T07:08:21;9.20;95.80
44461;DHT22;30162;53.642;10.640;2022-12-20T07:10:47;9.30;95.60
44461;DHT22;30162;53.642;10.640;2022-12-20T07:13:13;9.20;95.60
44461;DHT22;30162;53.642;10.640;2022-12-20T07:15:38;9.40;95.60
44461;DHT22;30162;53.642;10.640;2022-12-20T07:18:04;9.50;95.50
44461;DHT22;30162;53.642;10.640;2022-12-20T07:20:31;9.40;95.30
44461;DHT22;30162;53.642;10.640;2022-12-20T07:22:56;9.30;95.40
44461;DHT22;30162;53.642;10.640;2022-12-20T07:25:22;9.40;95.90
44461;DHT22;30162;53.642;10.640;2022-12-20T07:27:49;9.30;95.70
44461;DHT22;30162;53.642;10.640;2022-12-20T07:30:15;9.20;96.00
44461;DHT22;30162;53.642;10.640;2022-12-20T07:32:41;9.10;96.80
44461;DHT22;30162;53.642;10.640;2022-12-20T07:35:08;9.20;96.70
44461;DHT22;30162;53.642;10.640;2022-12-20T07:37:34;9.30;96.60
44461;DHT22;30162;53.642;10.640;2022-12-20T07:40:00;9.40;96.40
44461;DHT22;30162;53.642;10.640;2022-12-20T07:42:25;9.50;96.10
44461;DHT22;30162;53.642;10.640;2022-12-20T07:44:51;9.50;96.50
44461;DHT22;30162;53.642;10.640;2022-12-20T07:47:16;9.30;96.50
44461;DHT22;30162;53.642;10.640;2022-12-20T07:49:42;9.60;96.40
44461;DHT22;30162;53.642;10.640;2022-12-20T07:52:10;9.60;96.50
44461;DHT22;30162;53.642;10.640;2022-12-20T07:54:41;9.50;96.30
44461;DHT22;30162;53.642;10.640;2022-12-20T07:57:14;9.70;96.30
44461;DHT22;30162;53.642;10.640;2022-12-20T07:59:49;9.50;96.40
44461;DHT22;30162;53.642;10.640;2022-12-20T08:02:23;9.50;96.40
44461;DHT22;30162;53.642;10.640;2022-12-20T08:07:16;9.80;96.30
44461;DHT22;30162;53.642;10.640;2022-12-20T08:09:43;9.90;96.20
44461;DHT22;30162;53.642;10.640;2022-12-20T08:12:09;9.80;96.20
44461;DHT22;30162;53.642;10.640;2022-12-20T08:14:37;9.90;96.10
44461;DHT22;30162;53.642;10.640;2022-12-20T08:17:03;9.80;96.10
44461;DHT22;30162;53.642;10.640;2022-12-20T08:19:29;9.80;96.20
44461;DHT22;30162;53.642;10.640;2022-12-20T08:21:54;9.80;96.00
44461;DHT22;30162;53.642;10.640;2022-12-20T08:24:20;9.60;96.20
44461;DHT22;30162;53.642;10.640;2022-12-20T08:26:45;9.70;96.60
44461;DHT22;30162;53.642;10.640;2022-12-20T08:29:11;9.50;96.80
44461;DHT22;30162;53.642;10.640;2022-12-20T08:31:38;9.70;96.50
44461;DHT22;30162;53.642;10.640;2022-12-20T08:34:04;9.80;96.30
44461;DHT22;30162;53.642;10.640;2022-12-20T08:36:30;9.90;96.20
44461;DHT22;30162;53.642;10.640;2022-12-20T08:38:55;9.90;96.30
44461;DHT22;30162;53.642;10.640;2022-12-20T08:41:21;10.00;96.10
44461;DHT22;30162;53.642;10.640;2022-12-20T08:43:46;10.00;96.30
44461;DHT22;30162;53.642;10.640;2022-12-20T08:46:12;9.80;96.80
44461;DHT22;30162;53.642;10.640;2022-12-20T08:48:38;9.90;96.70
44461;DHT22;30162;53.642;10.640;2022-12-20T08:51:06;10.10;96.40
44461;DHT22;30162;53.642;10.640;2022-12-20T08:53:34;10.10;96.30
44461;DHT22;30162;53.642;10.640;2022-12-20T08:56:11;9.60;96.90
44461;DHT22;30162;53.642;10.640;2022-12-20T08:58:37;10.00;96.90
44461;DHT22;30162;53.642;10.640;2022-12-20T09:01:05;10.10;96.50
44461;DHT22;30162;53.642;10.640;2022-12-20T09:05:58;10.20;96.30
44461;DHT22;30162;53.642;10.640;2022-12-20T09:08:24;10.00;96.90
44461;DHT22;30162;53.642;10.640;2022-12-20T09:10:50;10.10;96.70
44461;DHT22;30162;53.642;10.640;2022-12-20T09:13:17;10.10;97.10
44461;DHT22;30162;53.642;10.640;2022-12-20T09:15:43;10.20;96.80
44461;DHT22;30162;53.642;10.640;2022-12-20T09:18:09;10.20;96.80
44461;DHT22;30162;53.642;10.640;2022-12-20T09:20:40;10.30;96.60
44461;DHT22;30162;53.642;10.640;2022-12-20T09:23:06;10.60;96.50
44461;DHT22;30162;53.642;10.640;2022-12-20T09:25:32;10.60;96.40
44461;DHT22;30162;53.642;10.640;2022-12-20T09:27:57;10.60;96.40
44461;DHT22;30162;53.642;10.640;2022-12-20T09:30:23;10.50;96.50
44461;DHT22;30162;53.642;10.640;2022-12-20T09:32:49;10.40;96.50
44461;DHT22;30162;53.642;10.640;2022-12-20T09:35:14;10.40;96.60
44461;DHT22;30162;53.642;10.640;2022-12-20T09:37:40;10.50;96.70
44461;DHT22;30162;53.642;10.640;2022-12-20T09:40:08;10.70;96.20
44461;DHT22;30162;53.642;10.640;2022-12-20T09:42:38;10.70;96.20
44461;DHT22;30162;53.642;10.640;2022-12-20T09:45:08;10.60;96.50
44461;DHT22;30162;53.642;10.640;2022-12-20T09:47:39;10.80;96.40
44461;DHT22;30162;53.642;10.640;2022-12-20T09:50:06;10.90;96.20
44461;DHT22;30162;53.642;10.640;2022-12-20T09:52:59;10.90;96.30
44461;DHT22;30162;53.642;10.640;2022-12-20T09:55:39;10.90;96.50
44461;DHT22;30162;53.642;10.640;2022-12-20T10:01:18;10.80;96.50
44461;DHT22;30162;53.642;10.640;2022-12-20T10:03:44;10.70;96.80
44461;DHT22;30162;53.642;10.640;2022-12-20T10:09:16;11.10;96.40
44461;DHT22;30162;53.642;10.640;2022-12-20T10:12:00;11.10;96.20
44461;DHT22;30162;53.642;10.640;2022-12-20T10:17:13;11.00;96.60
44461;DHT22;30162;53.642;10.640;2022-12-20T10:20:03;11.10;96.30
44461;DHT22;30162;53.642;10.640;2022-12-20T10:25:32;11.30;96.30
44461;DHT22;30162;53.642;10.640;2022-12-20T10:28:02;11.30;96.30
44461;DHT22;30162;53.642;10.640;2022-12-20T10:30:31;11.40;96.30
44461;DHT22;30162;53.642;10.640;2022-12-20T10:32:57;11.50;96.30
44461;DHT22;30162;53.642;10.640;2022-12-20T10:35:27;11.60;96.20
44461;DHT22;30162;53.642;10.640;2022-12-20T10:40:34;11.60;96.10
44461;DHT22;30162;53.642;10.640;2022-12-20T10:43:01;11.90;96.10
44461;DHT22;30162;53.642;10.640;2022-12-20T10:45:36;12.00;96.00
44461;DHT22;30162;53.642;10.640;2022-12-20T10:48:04;12.00;95.80
44461;DHT22;30162;53.642;10.640;2022-12-20T10:50:30;12.10;95.60
44461;DHT22;30162;53.642;10.640;2022-12-20T10:58:03;11.90;95.50
44461;DHT22;30162;53.642;10.640;2022-12-20T11:00:30;11.90;95.90
44461;DHT22;30162;53.642;10.640;2022-12-20T11:05:38;11.90;95.80
44461;DHT22;30162;53.642;10.640;2022-12-20T11:08:13;11.80;96.10
44461;DHT22;30162;53.642;10.640;2022-12-20T11:10:40;12.00;95.90
44461;DHT22;30162;53.642;10.640;2022-12-20T11:13:05;11.80;95.90
44461;DHT22;30162;53.642;10.640;2022-12-20T11:15:33;11.80;95.90
44461;DHT22;30162;53.642;10.640;2022-12-20T11:18:05;11.90;96.00
44461;DHT22;30162;53.642;10.640;2022-12-20T11:20:48;12.00;95.80
44461;DHT22;30162;53.642;10.640;2022-12-20T11:23:31;12.20;95.70
44461;DHT22;30162;53.642;10.640;2022-12-20T11:26:17;12.10;95.40
44461;DHT22;30162;53.642;10.640;2022-12-20T11:29:05;12.20;95.50
44461;DHT22;30162;53.642;10.640;2022-12-20T11:31:56;12.30;95.40
44461;DHT22;30162;53.642;10.640;2022-12-20T11:37:26;12.20;95.30
44461;DHT22;30162;53.642;10.640;2022-12-20T11:51:02;12.10;95.30
44461;DHT22;30162;53.642;10.640;2022-12-20T11:53:42;12.10;95.60
44461;DHT22;30162;53.642;10.640;2022-12-20T11:56:25;11.90;95.60
44461;DHT22;30162;53.642;10.640;2022-12-20T11:59:00;12.00;95.70
44461;DHT22;30162;53.642;10.640;2022-12-20T12:01:51;12.00;95.50
44461;DHT22;30162;53.642;10.640;2022-12-20T12:04:21;12.20;95.40
44461;DHT22;30162;53.642;10.640;2022-12-20T12:06:58;12.10;95.40
44461;DHT22;30162;53.642;10.640;2022-12-20T12:09:38;12.30;95.50
44461;DHT22;30162;53.642;10.640;2022-12-20T12:12:14;12.20;95.40
44461;DHT22;30162;53.642;10.640;2022-12-20T12:15:15;12.00;95.50
44461;DHT22;30162;53.642;10.640;2022-12-20T12:25:36;12.40;95.30
44461;DHT22;30162;53.642;10.640;2022-12-20T12:28:03;12.50;94.80
44461;DHT22;30162;53.642;10.640;2022-12-20T12:30:36;12.50;94.90
44461;DHT22;30162;53.642;10.640;2022-12-20T12:33:09;12.40;94.90
44461;DHT22;30162;53.642;10.640;2022-12-20T12:35:48;12.50;95.10
44461;DHT22;30162;53.642;10.640;2022-12-20T12:44:45;12.10;95.10
44461;DHT22;30162;53.642;10.640;2022-12-20T12:47:34;12.20;95.10
44461;DHT22;30162;53.642;10.640;2022-12-20T12:50:00;12.00;95.10
44461;DHT22;30162;53.642;10.640;2022-12-20T12:52:39;12.00;95.20
44461;DHT22;30162;53.642;10.640;2022-12-20T12:55:43;12.10;95.20
44461;DHT22;30162;53.642;10.640;2022-12-20T12:58:33;12.20;94.90
44461;DHT22;30162;53.642;10.640;2022-12-20T13:01:09;12.20;95.10
44461;DHT22;30162;53.642;10.640;2022-12-20T13:11:40;12.10;95.20
44461;DHT22;30162;53.642;10.640;2022-12-20T13:16:52;12.10;95.20
44461;DHT22;30162;53.642;10.640;2022-12-20T13:24:53;11.90;95.20
44461;DHT22;30162;53.642;10.640;2022-12-20T13:27:39;11.90;95.50
44461;DHT22;30162;53.642;10.640;2022-12-20T13:35:28;11.70;95.60
44461;DHT22;30162;53.642;10.640;2022-12-20T13:40:59;11.90;95.40
44461;DHT22;30162;53.642;10.640;2022-12-20T13:43:27;11.80;95.50
44461;DHT22;30162;53.642;10.640;2022-12-20T13:51:16;11.70;95.60
44461;DHT22;30162;53.642;10.640;2022-12-20T13:53:53;11.70;95.50
44461;DHT22;30162;53.642;10.640;2022-12-20T13:56:41;11.70;95.60
44461;DHT22;30162;53.642;10.640;2022-12-20T13:59:22;11.70;95.40
44461;DHT22;30162;53.642;10.640;2022-12-20T14:01:51;11.70;95.50
44461;DHT22;30162;53.642;10.640;2022-12-20T14:04:18;11.60;95.50
44461;DHT22;30162;53.642;10.640;2022-12-20T14:06:49;11.70;95.60
44461;DHT22;30162;53.642;10.640;2022-12-20T14:09:31;11.70;95.40
44461;DHT22;30162;53.642;10.640;2022-12-20T14:12:13;11.60;95.40
44461;DHT22;30162;53.642;10.640;2022-12-20T14:14:47;11.70;95.50
44461;DHT22;30162;53.642;10.640;2022-12-20T14:17:23;11.80;95.10
44461;DHT22;30162;53.642;10.640;2022-12-20T14:25:25;11.60;95.50
44461;DHT22;30162;53.642;10.640;2022-12-20T14:27:52;11.60;95.40
44461;DHT22;30162;53.642;10.640;2022-12-20T14:30:33;11.50;95.50
44461;DHT22;30162;53.642;10.640;2022-12-20T14:33:00;11.40;95.40
44461;DHT22;30162;53.642;10.640;2022-12-20T14:35:26;11.40;95.70
44461;DHT22;30162;53.642;10.640;2022-12-20T14:38:01;11.30;95.70
44461;DHT22;30162;53.642;10.640;2022-12-20T14:40:28;11.30;95.90
44461;DHT22;30162;53.642;10.640;2022-12-20T14:42:54;11.20;95.90
44461;DHT22;30162;53.642;10.640;2022-12-20T14:45:23;11.40;95.80
44461;DHT22;30162;53.642;10.640;2022-12-20T14:47:57;11.30;95.40
44461;DHT22;30162;53.642;10.640;2022-12-20T14:50:32;11.20;95.70
44461;DHT22;30162;53.642;10.640;2022-12-20T14:52:59;11.20;95.80
44461;DHT22;30162;53.642;10.640;2022-12-20T14:55:37;11.20;95.90
44461;DHT22;30162;53.642;10.640;2022-12-20T14:58:28;11.20;95.60
44461;DHT22;30162;53.642;10.640;2022-12-20T15:01:19;11.10;95.80
44461;DHT22;30162;53.642;10.640;2022-12-20T15:03:53;11.00;96.00
44461;DHT22;30162;53.642;10.640;2022-12-20T15:09:03;11.20;95.80
44461;DHT22;30162;53.642;10.640;2022-12-20T15:11:29;11.20;95.90
44461;DHT22;30162;53.642;10.640;2022-12-20T15:13:55;11.20;95.80
44461;DHT22;30162;53.642;10.640;2022-12-20T15:16:26;11.30;95.60
44461;DHT22;30162;53.642;10.640;2022-12-20T15:18:54;11.30;95.40
44461;DHT22;30162;53.642;10.640;2022-12-20T15:23:53;11.30;95.50
44461;DHT22;30162;53.642;10.640;2022-12-20T15:26:21;11.30;95.30
44461;DHT22;30162;53.642;10.640;2022-12-20T15:28:47;11.20;95.40
44461;DHT22;30162;53.642;10.640;2022-12-20T15:31:15;11.00;95.30
44461;DHT22;30162;53.642;10.640;2022-12-20T15:33:42;11.00;95.70
44461;DHT22;30162;53.642;10.640;2022-12-20T15:36:17;10.90;95.80
44461;DHT22;30162;53.642;10.640;2022-12-20T15:38:43;10.90;96.10
44461;DHT22;30162;53.642;10.640;2022-12-20T15:41:30;11.00;96.20
44461;DHT22;30162;53.642;10.640;2022-12-20T15:43:59;11.00;95.90
44461;DHT22;30162;53.642;10.640;2022-12-20T15:46:25;11.00;96.00
44461;DHT22;30162;53.642;10.640;2022-12-20T15:48:51;11.10;96.00
44461;DHT22;30162;53.642;10.640;2022-12-20T15:53:52;11.20;96.00
44461;DHT22;30162;53.642;10.640;2022-12-20T15:56:20;11.00;95.90
44461;DHT22;30162;53.642;10.640;2022-12-20T15:58:47;11.00;95.90
44461;DHT22;30162;53.642;10.640;2022-12-20T16:01:20;11.00;96.00
44461;DHT22;30162;53.642;10.640;2022-12-20T16:03:46;11.10;96.00
44461;DHT22;30162;53.642;10.640;2022-12-20T16:06:12;11.20;95.90
44461;DHT22;30162;53.642;10.640;2022-12-20T16:08:39;11.20;95.70
44461;DHT22;30162;53.642;10.640;2022-12-20T16:11:10;11.20;95.60
44461;DHT22;30162;53.642;10.640;2022-12-20T16:13:39;11.20;95.50
44461;DHT22;30162;53.642;10.640;2022-12-20T16:16:04;11.10;95.50
44461;DHT22;30162;53.642;10.640;2022-12-20T16:18:31;11.10;95.60
44461;DHT22;30162;53.642;10.640;2022-12-20T16:20:56;11.10;95.70
44461;DHT22;30162;53.642;10.640;2022-12-20T16:23:22;11.20;95.80
44461;DHT22;30162;53.642;10.640;2022-12-20T16:25:48;11.10;95.90
44461;DHT22;30162;53.642;10.640;2022-12-20T16:28:15;11.10;96.10
44461;DHT22;30162;53.642;10.640;2022-12-20T16:30:40;11.20;95.90
44461;DHT22;30162;53.642;10.640;2022-12-20T16:33:08;11.30;96.00
44461;DHT22;30162;53.642;10.640;2022-12-20T16:35:35;11.30;95.80
44461;DHT22;30162;53.642;10.640;2022-12-20T16:38:04;11.30;95.70
44461;DHT22;30162;53.642;10.640;2022-12-20T16:40:31;11.30;95.80
44461;DHT22;30162;53.642;10.640;2022-12-20T16:42:58;11.10;95.70
44461;DHT22;30162;53.642;10.640;2022-12-20T16:45:27;11.10;96.10
44461;DHT22;30162;53.642;10.640;2022-12-20T16:47:53;11.30;95.90
44461;DHT22;30162;53.642;10.640;2022-12-20T16:50:21;11.30;96.00
44461;DHT22;30162;53.642;10.640;2022-12-20T16:52:47;11.30;96.10
44461;DHT22;30162;53.642;10.640;2022-12-20T16:55:20;11.30;96.00
44461;DHT22;30162;53.642;10.640;2022-12-20T16:57:46;11.30;95.70
44461;DHT22;30162;53.642;10.640;2022-12-20T17:00:21;11.40;95.70
44461;DHT22;30162;53.642;10.640;2022-12-20T17:02:47;11.40;95.70
44461;DHT22;30162;53.642;10.640;2022-12-20T17:05:26;11.30;96.00
44461;DHT22;30162;53.642;10.640;2022-12-20T17:07:52;11.20;96.10
44461;DHT22;30162;53.642;10.640;2022-12-20T17:10:18;11.40;95.90
44461;DHT22;30162;53.642;10.640;2022-12-20T17:12:44;11.40;95.90
44461;DHT22;30162;53.642;10.640;2022-12-20T17:15:32;11.60;95.80
44461;DHT22;30162;53.642;10.640;2022-12-20T17:17:58;11.60;95.70
44461;DHT22;30162;53.642;10.640;2022-12-20T17:20:23;11.60;95.60
44461;DHT22;30162;53.642;10.640;2022-12-20T17:22:54;11.50;95.70
44461;DHT22;30162;53.642;10.640;2022-12-20T17:25:22;11.60;96.00
44461;DHT22;30162;53.642;10.640;2022-12-20T17:27:49;11.50;95.90
44461;DHT22;30162;53.642;10.640;2022-12-20T17:30:15;11.60;96.10
44461;DHT22;30162;53.642;10.640;2022-12-20T17:32:41;11.60;95.90
44461;DHT22;30162;53.642;10.640;2022-12-20T17:35:19;11.70;96.00
44461;DHT22;30162;53.642;10.640;2022-12-20T17:37:46;11.60;95.90